Terminal Aerodrome Forecast
Issued by NWS

Home | Current Version | Previous Version | Text Only | Print | Product List | Glossary On
Versions: 1 2 3 4 5 6 7 8 9 10 11 12 13 14 15 16 17 18 19 20 21 22 23 24 25 26 27
000
FTUS44 KFWD 010500
TAFDAL
TAF
KDAL 010520Z 0106/0206 16014KT 3SM SHRA BR OVC007
     FM010800 18010KT 5SM BR VCSH SCT003 OVC007
     FM011200 22008KT P6SM SCT007 OVC014
     FM011500 30012KT P6SM OVC015
     FM011800 33018KT P6SM OVC023
     FM012000 34020G30KT P6SM FEW035 SCT120=

USA.gov is the U.S. government's official web portal to all federal, state and local government web resources and services.